Shoal Cove, Canada
Current Conditions -  °F | °C
As of 12:00 PM on Friday 31 Oct 2014 (Local Time) from CYBX Reporting Station
Few Clouds Few Clouds  
Wind Chill: 28°   Ceiling: Unl
Heat Index: 37°   Visibility: 15mi
Dew Point: 30°   Wind: 17mph
Humidity: 75%   Direction: 270°W
Pressure: 29.85"   Gusts: NA
Location:  51.02°N, 57.02°W
Report Text: CYBX 311400Z 27015KT 15SM FEW200 03/M01 A2985 RMK CI1 SLP111
Loading
Personal Weather Stations






























Interactive Weather Map
Tropical Storm Tracking
New forecast layout! Learn more

10-Day Weather Forecast

Advertisements
Track Severe Weather on mobile